Latest Weather Observations for Yarram Airport

IDV60801

Issued at 9:23 pm EDT Friday 26 February 2021 (issued every 10 minutes, with the page automatically refreshed every 10 minutes)

About weather observations | Map of weather stations | Latest weather observations for VIC | Other Formats
Station Details ID: 085151 Name: YARRAM AIRPORT Lat: -38.56 Lon: 146.75 Height: 17.9 m
Data from the previous 72 hours. | See also: Recent months at Yarram Airport
Date/Time
EDT
Temp
°C
App
Temp
°C
Dew
Point
°C
Rel
Hum
%
Delta-T
°C
Wind Press
QNH
hPa
Press
MSL
hPa
Rain since
9am
mm
Dir  Spd
km/h
Gust
km/h
Spd
kts
Gust
kts
26/09:00pm 10.9 8.3 7.6 80 1.6 W 11 11 6 6 1014.3 1014.3 0.0
26/08:30pm 12.2 9.9 7.5 73 2.3 W 9 9 5 5 1014.1 1014.1 0.0
26/08:00pm 13.7 10.3 7.5 66 3.0 SW 15 20 8 11 1013.8 1013.8 0.0
26/07:30pm 15.6 11.8 7.6 59 4.0 SW 17 22 9 12 1013.7 1013.7 0.0
26/07:00pm 16.8 12.5 8.0 56 4.5 SW 20 28 11 15 1013.6 1013.6 0.0
26/06:30pm 17.4 12.5 8.3 55 4.7 WSW 24 30 13 16 1013.4 1013.4 0.0
26/06:00pm 18.3 13.4 8.3 52 5.1 WSW 24 33 13 18 1013.2 1013.2 0.0
26/05:30pm 18.4 12.6 8.1 51 5.3 SW 28 35 15 19 1013.3 1013.3 0.0
26/05:00pm 18.8 13.1 8.2 50 5.5 SW 28 39 15 21 1013.3 1013.3 0.0
26/04:30pm 19.6 14.0 8.6 49 5.7 SW 28 41 15 22 1013.3 1013.3 0.0
26/04:00pm 19.2 13.5 8.2 49 5.7 SW 28 41 15 22 1013.0 1013.0 0.0
26/03:30pm 19.3 12.6 8.0 48 5.8 SW 33 46 18 25 1013.2 1013.2 0.0
26/03:00pm 19.7 13.4 9.0 50 5.6 SW 32 44 17 24 1013.1 1013.1 0.0
26/02:30pm 18.2 11.7 8.2 52 5.1 SW 32 43 17 23 1013.3 1013.3 0.0
26/02:00pm 18.0 11.7 8.8 55 4.8 SW 32 44 17 24 1013.5 1013.5 0.0
26/01:30pm 18.1 12.0 8.1 52 5.1 SW 30 39 16 21 1013.4 1013.4 0.0
26/01:00pm 17.9 12.0 7.6 51 5.2 SW 28 41 15 22 1013.4 1013.4 0.0
26/12:30pm 17.3 10.7 8.7 57 4.4 WSW 33 43 18 23 1013.6 1013.6 0.0
26/12:00pm 16.4 11.3 9.3 63 3.7 W 26 37 14 20 1013.8 1013.8 0.0
26/11:30am 16.3 11.7 9.7 65 3.4 WSW 24 32 13 17 1014.0 1014.0 0.0
26/11:00am 15.9 10.9 8.2 60 3.9 WSW 24 33 13 18 1014.0 1014.0 0.0
26/10:30am 15.6 10.9 9.1 65 3.3 WSW 24 30 13 16 1013.7 1013.7 0.0
26/10:00am 15.1 11.5 9.9 71 2.7 W 19 24 10 13 1013.5 1013.5 0.0
26/09:30am 14.2 11.4 10.0 76 2.2 NW 15 19 8 10 1013.1 1013.1 0.0
26/09:00am 12.7 8.5 9.7 82 1.5 WNW 22 32 12 17 1013.2 1013.2 6.0
26/08:30am 13.0 9.6 9.1 77 2.0 WNW 17 20 9 11 1012.6 1012.6 6.0
26/08:00am 12.5 9.3 8.6 77 1.9 W 15 19 8 10 1012.2 1012.2 6.0
26/07:30am 11.3 8.0 8.2 81 1.5 WNW 15 17 8 9 1011.9 1011.9 6.0
26/07:00am 10.8 7.9 8.0 83 1.4 WNW 13 17 7 9 1011.6 1011.6 6.0
26/06:30am 11.3 7.6 8.0 80 1.6 W 17 24 9 13 1011.2 1011.2 6.0
26/06:00am 10.0 7.4 7.6 85 1.1 NW 11 15 6 8 1011.0 1011.0 6.0
26/05:30am 10.0 6.2 7.4 84 1.2 NW 17 20 9 11 1010.7 1010.7 6.0
26/05:00am 10.9 7.2 7.8 81 1.5 NW 17 20 9 11 1010.4 1010.4 6.0
26/04:30am 10.6 6.2 7.5 81 1.5 WNW 20 24 11 13 1010.4 1010.4 6.0
26/04:00am 10.5 6.3 7.4 81 1.5 WNW 19 22 10 12 1010.5 1010.5 6.0
26/03:30am 10.1 5.8 7.0 81 1.5 WNW 19 24 10 13 1010.5 1010.5 6.0
26/03:00am 10.1 6.2 7.3 83 1.3 WNW 17 20 9 11 1010.5 1010.5 6.0
26/02:30am 10.3 6.9 7.7 84 1.2 W 15 19 8 10 1010.7 1010.7 6.0
26/02:00am 10.5 6.8 7.9 84 1.3 WNW 17 20 9 11 1010.7 1010.7 6.0
26/01:30am 10.9 7.8 8.7 86 1.1 WNW 15 19 8 10 1010.9 1010.9 6.0
26/01:00am 11.6 8.3 9.5 87 1.1 W 17 24 9 13 1010.8 1010.8 6.0
26/12:30am 12.1 9.0 10.2 88 1.0 W 17 24 9 13 1010.9 1010.9 6.0
26/12:00am 12.3 9.4 10.9 91 0.7 WNW 17 22 9 12 1010.7 1010.7 6.0
 
Date/Time
EDT
Temp
°C
App
Temp
°C
Dew
Point
°C
Rel
Hum
%
Delta-T
°C
Wind Press
QNH
hPa
Press
MSL
hPa
Rain since
9am
mm
Dir  Spd
km/h
Gust
km/h
Spd
kts
Gust
kts
25/11:30pm 12.8 10.5 11.7 93 0.6 WNW 15 20 8 11 1010.8 1010.8 6.0
25/11:00pm 12.9 10.7 12.1 95 0.4 W 15 20 8 11 1010.9 1010.9 6.0
25/10:30pm 13.1 11.0 12.5 96 0.3 W 15 20 8 11 1011.1 1011.1 5.8
25/10:00pm 13.1 11.4 12.5 96 0.3 W 13 19 7 10 1011.1 1011.1 5.8
25/09:30pm 13.2 11.1 12.4 95 0.4 WSW 15 20 8 11 1011.0 1011.0 5.4
25/09:00pm 13.1 9.3 12.3 95 0.4 WSW 24 30 13 16 1010.6 1010.6 5.0
25/08:30pm 13.6 9.5 12.8 95 0.4 SW 26 37 14 20 1010.1 1010.1 4.2
25/08:00pm 14.4 11.4 13.6 95 0.4 WSW 22 35 12 19 1009.4 1009.4 2.8
25/07:30pm 15.1 12.4 13.6 91 0.8 WSW 20 26 11 14 1008.7 1008.7 0.4
25/07:00pm 16.8 11.4 12.7 77 2.3 WSW 33 43 18 23 1008.1 1008.1 0.0
25/06:33pm 18.2 12.4 10.8 62 4.0 WSW 32 50 17 27 1007.6 1007.6 0.0
25/06:30pm 18.2 12.2 10.8 62 4.0 WSW 33 50 18 27 1007.6 1007.6 0.0
25/06:24pm 18.7 13.1 10.0 57 4.6 WSW 30 50 16 27 1007.4 1007.4 0.0
25/06:00pm 20.7 15.8 8.4 45 6.5 W 24 35 13 19 1006.8 1006.8 0.0
25/05:30pm 21.3 14.5 7.9 42 7.0 WNW 33 43 18 23 1006.7 1006.7 0.0
25/05:00pm 22.8 16.1 8.1 39 7.8 W 33 44 18 24 1006.7 1006.7 0.0
25/04:30pm 22.3 16.0 7.3 38 7.8 W 30 44 16 24 1007.0 1007.0 0.0
25/04:00pm 22.8 15.9 6.6 35 8.3 W 32 44 17 24 1007.0 1007.0 0.0
25/03:30pm 23.2 16.3 6.5 34 8.6 W 32 43 17 23 1007.0 1007.0 0.0
25/03:00pm 23.1 16.2 6.4 34 8.6 WNW 32 46 17 25 1007.4 1007.4 0.0
25/02:30pm 21.8 15.2 6.1 36 7.9 W 30 41 16 22 1007.6 1007.6 0.0
25/02:00pm 22.7 15.6 6.5 35 8.3 W 33 48 18 26 1008.1 1008.1 0.0
25/01:30pm 22.6 16.7 7.6 38 7.8 W 28 39 15 21 1008.4 1008.4 0.0
25/01:22pm 22.4 16.7 8.5 41 7.4 W 28 48 15 26 1008.6 1008.6 0.0
25/01:00pm 21.7 16.1 8.9 44 6.8 W 28 39 15 21 1009.0 1009.0 0.0
25/12:30pm 20.5 13.8 8.2 45 6.4 W 33 43 18 23 1009.3 1009.3 0.0
25/12:00pm 20.8 14.3 9.1 47 6.2 W 33 50 18 27 1009.7 1009.7 0.0
25/11:30am 20.0 14.7 8.4 47 6.0 W 26 37 14 20 1010.3 1010.3 0.0
25/11:00am 18.3 13.2 9.1 55 4.8 W 26 35 14 19 1010.6 1010.6 0.0
25/10:30am 17.0 12.2 8.9 59 4.2 W 24 32 13 17 1010.8 1010.8 0.0
25/10:00am 17.0 12.4 9.7 62 3.8 WSW 24 30 13 16 1011.0 1011.0 0.0
25/09:30am 15.9 12.5 10.4 70 2.9 W 19 24 10 13 1010.9 1010.9 0.0
25/09:00am 14.7 11.7 10.5 76 2.2 WNW 17 20 9 11 1011.0 1011.0 0.0
25/08:30am 14.0 11.4 10.6 80 1.8 WNW 15 19 8 10 1010.9 1010.9 0.0
25/08:00am 12.9 11.1 10.8 87 1.1 WNW 11 15 6 8 1011.0 1011.0 0.0
25/07:30am 11.3 9.5 9.6 89 0.9 W 9 11 5 6 1011.1 1011.1 0.0
25/07:00am 11.5 9.4 9.8 89 0.9 WNW 11 13 6 7 1011.1 1011.1 0.0
25/06:30am 11.3 9.3 10.0 92 0.7 WNW 11 13 6 7 1011.2 1011.2 0.0
25/06:00am 10.5 8.7 9.6 94 0.5 WNW 9 11 5 6 1011.2 1011.2 0.0
25/05:30am 10.0 7.8 9.4 96 0.3 WNW 11 13 6 7 1011.2 1011.2 0.0
25/05:00am 6.1 3.7 5.1 93 0.4 WNW 7 9 4 5 1011.4 1011.4 0.0
25/04:30am 5.8 2.9 4.6 92 0.5 NNW 9 9 5 5 1011.5 1011.5 0.0
25/04:00am 7.4 5.2 6.3 93 0.5 WNW 7 11 4 6 1011.9 1011.9 0.0
25/03:30am 7.6 4.7 6.5 93 0.5 WNW 11 13 6 7 1012.3 1012.3 0.0
25/03:00am 7.5 5.0 6.4 93 0.5 WNW 9 9 5 5 1012.6 1012.6 0.0
25/02:30am 7.6 5.1 6.5 93 0.5 WNW 9 13 5 7 1013.0 1013.0 0.0
25/02:00am 6.8 4.1 5.4 91 0.6 W 9 11 5 6 1013.6 1013.6 0.0
25/01:30am 6.7 4.5 5.3 91 0.6 W 6 7 3 4 1014.1 1014.1 0.0
25/01:00am 6.9 5.1 5.4 90 0.7 NNW 4 6 2 3 1014.6 1014.6 0.0
25/12:30am 6.6 5.5 4.9 89 0.7 CALM 0 0 0 0 1015.1 1015.1 0.0
25/12:00am 6.9 5.8 4.9 87 0.9 CALM 0 0 0 0 1015.5 1015.5 0.0
 
Date/Time
EDT
Temp
°C
App
Temp
°C
Dew
Point
°C
Rel
Hum
%
Delta-T
°C
Wind Press
QNH
hPa
Press
MSL
hPa
Rain since
9am
mm
Dir  Spd
km/h
Gust
km/h
Spd
kts
Gust
kts
24/11:30pm 7.1 6.0 4.9 86 1.0 CALM 0 0 0 0 1015.8 1015.8 0.0
24/11:00pm 8.0 7.0 5.5 84 1.1 CALM 0 0 0 0 1016.2 1016.2 0.0
24/10:30pm 8.6 7.2 5.5 81 1.4 N 2 6 1 3 1016.6 1016.6 0.0
24/10:00pm 9.7 7.5 6.4 80 1.5 N 7 9 4 5 1016.6 1016.6 0.0
24/09:30pm 9.7 7.3 5.1 73 2.1 NNE 7 7 4 4 1016.8 1016.8 0.0
24/09:00pm 12.8 10.5 7.5 70 2.6 E 9 9 5 5 1016.7 1016.7 0.0
24/08:30pm 13.1 10.7 6.9 66 3.0 E 9 11 5 6 1016.7 1016.7 0.0
24/08:00pm 14.6 11.8 6.9 60 3.7 E 11 15 6 8 1016.7 1016.7 0.0
24/07:30pm 16.2 12.6 6.6 53 4.7 E 15 20 8 11 1016.8 1016.8 0.0
24/07:00pm 17.2 13.5 6.4 49 5.3 E 15 22 8 12 1016.7 1016.7 0.0
24/06:30pm 17.8 13.8 6.7 48 5.5 E 17 24 9 13 1016.8 1016.8 0.0
24/06:00pm 18.4 15.3 7.2 48 5.6 E 13 20 7 11 1016.7 1016.7 0.0
24/05:30pm 18.5 14.3 7.6 49 5.5 SE 19 26 10 14 1017.0 1017.0 0.0
24/05:00pm 18.9 15.0 8.8 52 5.3 SE 19 28 10 15 1017.2 1017.2 0.0
24/04:30pm 18.3 13.8 6.8 47 5.7 SE 20 24 11 13 1017.4 1017.4 0.0
24/04:00pm 19.4 16.7 7.5 46 6.1 SSE 11 20 6 11 1017.7 1017.7 0.0
24/03:30pm 18.3 14.8 7.1 48 5.6 ESE 15 26 8 14 1018.0 1018.0 0.0
24/03:00pm 18.7 14.7 6.5 45 6.1 E 17 24 9 13 1018.4 1018.4 0.0
24/02:30pm 18.3 13.6 6.2 45 6.0 SE 20 30 11 16 1018.7 1018.7 0.0
24/02:00pm 18.4 14.6 5.6 43 6.2 SSE 15 22 8 12 1019.0 1019.0 0.0
24/01:30pm 18.2 13.6 6.4 46 5.8 SSE 20 28 11 15 1019.4 1019.4 0.0
24/01:00pm 18.1 13.4 6.0 45 5.9 S 20 28 11 15 1019.6 1019.6 0.0
24/12:30pm 19.0 15.7 4.4 38 7.0 SE 11 17 6 9 1019.9 1019.9 0.0
24/12:00pm 18.9 15.9 4.3 38 6.9 WNW 9 13 5 7 1020.3 1020.3 0.0
24/11:30am 18.9 15.9 3.9 37 7.1 WSW 9 15 5 8 1020.5 1020.5 0.0
24/11:00am 18.9 17.0 5.0 40 6.7 N 4 7 2 4 1020.9 1020.9 0.0
24/10:30am 17.6 15.2 4.2 41 6.3 NNW 6 11 3 6 1021.0 1021.0 0.0
24/10:00am 16.9 14.9 6.1 49 5.2 NW 6 11 3 6 1020.8 1020.8 0.0
24/09:30am 16.4 14.6 7.1 54 4.6 N 6 11 3 6 1020.6 1020.6 0.0
24/09:00am 15.2 13.5 8.4 64 3.4 NW 7 9 4 5 1020.5 1020.5 0.0
24/08:30am 13.0 11.5 9.3 78 1.9 NW 7 11 4 6 1020.4 1020.4 0.0
24/08:00am 9.0 7.4 7.9 93 0.5 W 6 7 3 4 1020.3 1020.3 0.0
24/07:30am 6.0 3.5 4.8 92 0.5 NW 7 7 4 4 1020.0 1020.0 0.0
24/07:00am 5.2 2.7 4.0 92 0.5 NNW 6 7 3 4 1019.8 1019.8 0.0
24/06:30am 5.3 2.9 4.1 92 0.5 NW 6 6 3 3 1019.6 1019.6 0.0
24/06:00am 5.7 3.3 4.5 92 0.5 WNW 6 7 3 4 1019.4 1019.4 0.0
24/05:30am 4.4 1.6 3.1 91 0.5 NW 7 9 4 5 1019.5 1019.5 0.0
24/05:00am 4.9 2.2 3.6 91 0.5 NNW 7 9 4 5 1019.4 1019.4 0.0
24/04:30am 5.1 2.4 3.9 92 0.5 NNW 7 9 4 5 1019.4 1019.4 0.0
24/04:00am 4.3 1.5 3.0 91 0.5 NNW 7 9 4 5 1019.4 1019.4 0.0
24/03:30am 4.7 1.9 3.2 90 0.6 NNW 7 9 4 5 1019.4 1019.4 0.0
24/03:00am 5.0 2.2 3.3 89 0.7 NNW 7 9 4 5 1019.5 1019.5 0.0
24/02:30am 5.8 2.8 4.1 89 0.7 WNW 9 9 5 5 1019.6 1019.6 0.0
24/02:00am 5.2 2.0 3.2 87 0.8 NNW 9 11 5 6 1019.9 1019.9 0.0
24/01:30am 5.6 2.4 3.3 85 1.0 N 9 11 5 6 1020.0 1020.0 0.0
24/01:00am 7.5 4.6 4.8 83 1.2 NW 9 9 5 5 1020.2 1020.2 0.0
24/12:30am 8.4 5.3 5.5 82 1.3 NW 11 13 6 7 1020.5 1020.5 0.0
24/12:00am 7.8 4.5 4.7 81 1.4 NW 11 11 6 6 1020.7 1020.7 0.0
 
Date/Time
EDT
Temp
°C
App
Temp
°C
Dew
Point
°C
Rel
Hum
%
Delta-T
°C
Wind Press
QNH
hPa
Press
MSL
hPa
Rain since
9am
mm
Dir  Spd
km/h
Gust
km/h
Spd
kts
Gust
kts
23/11:30pm 7.7 4.8 4.5 80 1.4 NW 9 11 5 6 1020.5 1020.5 0.0
23/11:00pm 8.5 6.2 5.6 82 1.3 NW 7 9 4 5 1020.5 1020.5 0.0
23/10:30pm 9.2 6.1 5.6 78 1.6 WNW 11 13 6 7 1020.4 1020.4 0.0
23/10:00pm 9.2 6.4 5.2 76 1.8 WNW 9 13 5 7 1020.4 1020.4 0.0
23/09:30pm 10.1 7.0 5.5 73 2.1 W 11 13 6 7 1020.4 1020.4 0.0

Other formats

Comma delimited format used in spreadsheet applications
http://www.bom.gov.au/fwo/IDV60801/IDV60801.95890.axf

JavaScript Object Notation format (JSON) in row-major order
http://www.bom.gov.au/fwo/IDV60801/IDV60801.95890.json

Data quality

Most of these data are generated automatically and are frequently updated. Quality checks on data are not normally performed. It is possible for incorrect values to appear. Refer to information at About Latest Weather Observations and please check the disclaimer before using these data.